Time;durP1;ratioP1;P1;durP2;ratioP2;P2;SDS_P1;SDS_P2;PMS_P1;PMS_P2;Temp;Humidity;BMP_temperature;BMP_pressure;BME280_temperature;BME280_humidity;BME280_pressure;Samples;Min_cycle;Max_cycle;Signal;HPM_P1;HPM_P2
2024/01/04 00:02:17;;;;;;;;;;;;;;;6.84;100.00;98022.16;5019784;28;19960;-87
2024/01/04 00:04:42;;;;;;;;;;;;;;;6.83;100.00;98022.25;5004447;28;19964;-85
2024/01/04 00:07:07;;;;;;;;;;;;;;;6.68;100.00;98027.44;5010386;28;20308;-85
2024/01/04 00:09:33;;;;;;;;;;;;;;;6.88;100.00;98034.22;5003180;28;19925;-84
2024/01/04 00:11:58;;;;;;;;;;;;;;;6.82;100.00;98031.09;5011710;28;19928;-84
2024/01/04 00:14:23;;;;;;;;;;;;;;;6.81;100.00;98037.28;5004461;28;20389;-85
2024/01/04 00:16:51;;;;;;;;;;;;;;;6.73;100.00;98035.06;5003021;28;19928;-87
2024/01/04 00:19:16;;;;;;;;;;;;;;;6.72;100.00;98043.91;5004275;28;20402;-83
2024/01/04 00:21:41;;;;;;;;;;;;;;;6.63;100.00;98047.88;5001969;28;19921;-85
2024/01/04 00:24:07;;;;;;;;;;;;;;;6.66;100.00;98049.53;5004673;28;19929;-85
2024/01/04 09:02:46;;;;;;;;;;;;;;;6.36;100.00;98674.59;5082049;23;19930;-85
2024/01/04 09:05:11;;;;;;;;;;;;;;;6.31;100.00;98684.47;4985238;28;19968;-85
2024/01/04 09:07:37;;;;;;;;;;;;;;;6.28;100.00;98684.59;4983918;28;19917;-84
2024/01/04 09:10:02;;;;;;;;;;;;;;;6.29;100.00;98699.47;4983588;28;19925;-83
2024/01/04 09:12:28;;;;;;;;;;;;;;;6.18;100.00;98694.66;4982514;28;19922;-85
2024/01/04 09:14:53;;;;;;;;;;;;;;;6.26;100.00;98694.34;4984631;28;19918;-85
2024/01/04 09:17:19;;;;;;;;;;;;;;;6.27;100.00;98693.44;4983477;28;19922;-87
2024/01/04 09:19:44;;;;;;;;;;;;;;;6.19;100.00;98708.69;4984348;28;20381;-85
2024/01/04 09:22:15;;;;;;;;;;;;;;;6.25;100.00;98702.31;5007881;28;19918;-82
2024/01/04 09:24:40;;;;;;;;;;;;;;;6.29;100.00;98703.91;4984657;28;20372;-82
2024/01/04 09:27:06;;;;;;;;;;;;;;;6.31;100.00;98708.16;4985086;28;19964;-82
2024/01/04 09:29:31;;;;;;;;;;;;;;;6.36;100.00;98715.84;4984732;28;20297;-82
2024/01/04 09:31:56;;;;;;;;;;;;;;;6.36;100.00;98718.50;4983033;28;19922;-83
2024/01/04 09:34:23;;;;;;;;;;;;;;;6.24;100.00;98722.50;4984472;28;19917;-86
2024/01/04 09:36:48;;;;;;;;;;;;;;;6.29;100.00;98725.78;4984608;28;19925;-85
2024/01/04 09:39:17;;;;;;;;;;;;;;;6.29;100.00;98731.06;4984381;28;19919;-84
2024/01/04 09:41:44;;;;;;;;;;;;;;;6.36;100.00;98743.00;4984535;28;19917;-84
2024/01/04 09:44:11;;;;;;;;;;;;;;;6.35;100.00;98741.31;4984455;28;19924;-83
2024/01/04 09:46:37;;;;;;;;;;;;;;;6.27;100.00;98743.44;4982791;28;19925;-83
2024/01/04 09:49:02;;;;;;;;;;;;;;;6.20;100.00;98749.84;4983036;28;19925;-84
2024/01/04 09:51:29;;;;;;;;;;;;;;;6.25;100.00;98750.50;4983244;28;19922;-85
2024/01/04 09:53:54;;;;;;;;;;;;;;;6.28;100.00;98739.84;4984173;28;19922;-83
2024/01/04 09:56:21;;;;;;;;;;;;;;;6.38;100.00;98752.63;4983970;28;19973;-81
2024/01/04 09:58:48;;;;;;;;;;;;;;;6.42;100.00;98754.22;4984308;28;19927;-84
2024/01/04 10:01:16;;;;;;;;;;;;;;;6.52;100.00;98755.53;4981543;28;19919;-82
2024/01/04 10:03:42;;;;;;;;;;;;;;;6.63;100.00;98760.34;4982672;28;19976;-83
2024/01/04 10:06:08;;;;;;;;;;;;;;;6.65;100.00;98756.72;4983700;28;20345;-83
2024/01/04 10:08:36;;;;;;;;;;;;;;;6.63;100.00;98771.72;4983887;28;20354;-84
2024/01/04 10:11:06;;;;;;;;;;;;;;;6.69;100.00;98767.97;4982753;28;19918;-84
2024/01/04 10:13:32;;;;;;;;;;;;;;;6.82;100.00;98773.56;4983797;28;19925;-83
2024/01/04 10:15:59;;;;;;;;;;;;;;;6.87;100.00;98774.22;4981555;28;19918;-89
2024/01/04 10:18:29;;;;;;;;;;;;;;;6.85;100.00;98776.91;4983912;28;19922;-82
2024/01/04 10:21:05;;;;;;;;;;;;;;;6.84;100.00;98779.59;4983279;28;19928;-84
2024/01/04 10:23:30;;;;;;;;;;;;;;;6.82;100.00;98779.69;4982874;28;19922;-85
2024/01/04 10:26:09;;;;;;;;;;;;;;;6.86;100.00;98783.91;4982569;28;19925;-85
2024/01/04 10:28:39;;;;;;;;;;;;;;;6.88;100.00;98778.56;4983458;28;19921;-83
2024/01/04 10:31:11;;;;;;;;;;;;;;;6.81;100.00;98777.09;4982290;28;19968;-84
2024/01/04 10:33:36;;;;;;;;;;;;;;;6.90;100.00;98781.97;4983648;28;20001;-85
2024/01/04 10:36:11;;;;;;;;;;;;;;;6.93;100.00;98779.22;4982511;28;20025;-85
2024/01/04 10:38:37;;;;;;;;;;;;;;;6.96;100.00;98779.09;4982084;28;19918;-83
2024/01/04 10:41:04;;;;;;;;;;;;;;;7.03;100.00;98779.66;4983126;28;19922;-84
2024/01/04 10:43:32;;;;;;;;;;;;;;;7.08;100.00;98775.91;4982732;28;19917;-92
2024/01/04 10:46:01;;;;;;;;;;;;;;;7.01;100.00;98785.00;4982083;28;19925;-85
2024/01/04 10:48:27;;;;;;;;;;;;;;;7.01;100.00;98786.78;4983366;28;19918;-85
2024/01/04 10:50:54;;;;;;;;;;;;;;;7.04;100.00;98787.50;4982879;28;20108;-89
2024/01/04 10:53:20;;;;;;;;;;;;;;;7.03;100.00;98785.78;4983963;28;19922;-83
2024/01/04 10:55:47;;;;;;;;;;;;;;;7.02;100.00;98789.34;4983029;28;19922;-83
2024/01/04 10:58:13;;;;;;;;;;;;;;;7.01;100.00;98800.81;4983768;28;19925;-87
2024/01/04 11:00:40;;;;;;;;;;;;;;;7.00;100.00;98795.59;4981953;28;19914;-83
2024/01/04 11:03:06;;;;;;;;;;;;;;;7.02;100.00;98805.16;4981679;28;19967;-83
2024/01/04 11:05:33;;;;;;;;;;;;;;;7.09;100.00;98790.78;4983152;28;20017;-89
2024/01/04 11:07:59;;;;;;;;;;;;;;;7.09;100.00;98795.19;4982881;28;19918;-84
2024/01/04 11:10:26;;;;;;;;;;;;;;;7.05;100.00;98791.84;4982895;28;20013;-83
2024/01/04 11:12:52;;;;;;;;;;;;;;;7.07;100.00;98787.38;4983509;28;19969;-84
2024/01/04 11:15:18;;;;;;;;;;;;;;;6.97;100.00;98796.56;4983393;28;19988;-82
2024/01/04 11:17:54;;;;;;;;;;;;;;;7.04;100.00;98791.91;4981569;28;19922;-83
2024/01/04 11:20:28;;;;;;;;;;;;;;;6.98;100.00;98793.03;4982901;28;19928;-88
2024/01/04 11:23:20;;;;;;;;;;;;;;;7.12;100.00;98804.75;4982642;28;19918;-84
2024/01/04 11:26:04;;;;;;;;;;;;;;;7.06;100.00;98809.34;4982572;28;19929;-83
2024/01/04 11:28:30;;;;;;;;;;;;;;;6.99;100.00;98807.03;4982963;28;19988;-85
2024/01/04 11:30:59;;;;;;;;;;;;;;;7.06;100.00;98800.59;4981910;28;20373;-83
2024/01/04 11:33:27;;;;;;;;;;;;;;;7.02;100.00;98802.53;4982312;28;19930;-84
2024/01/04 11:35:53;;;;;;;;;;;;;;;7.07;100.00;98812.84;4984198;28;20277;-86
2024/01/04 11:38:34;;;;;;;;;;;;;;;7.15;100.00;98804.59;4986416;28;19928;-86
2024/01/04 11:41:00;;;;;;;;;;;;;;;7.04;100.00;98811.19;4986552;28;20008;-84
2024/01/04 11:43:34;;;;;;;;;;;;;;;7.11;100.00;98808.31;4986189;28;20013;-83
2024/01/04 11:45:59;;;;;;;;;;;;;;;7.02;100.00;98810.41;4985176;28;19925;-84
2024/01/04 11:48:27;;;;;;;;;;;;;;;7.05;100.00;98820.81;4986735;28;19921;-84
2024/01/04 11:50:52;;;;;;;;;;;;;;;7.00;100.00;98814.88;4986802;28;20016;-89
2024/01/04 11:53:18;;;;;;;;;;;;;;;7.07;100.00;98808.44;4986115;28;20064;-84
2024/01/04 11:55:43;;;;;;;;;;;;;;;7.07;100.00;98805.81;4986539;28;19918;-85
2024/01/04 11:58:10;;;;;;;;;;;;;;;9.74;100.00;98791.81;4986312;28;20381;-83
2024/01/04 12:00:37;;;;;;;;;;;;;;;12.16;100.00;98782.69;4984766;28;20057;-84
2024/01/04 12:03:11;;;;;;;;;;;;;;;10.22;100.00;98797.09;4985870;28;19922;-83
2024/01/04 12:05:37;;;;;;;;;;;;;;;8.56;100.00;98798.91;4984589;28;19918;-82
2024/01/04 12:08:03;;;;;;;;;;;;;;;7.94;100.00;98809.78;4986022;28;19924;-83
2024/01/04 12:10:28;;;;;;;;;;;;;;;7.72;100.00;98807.28;4985647;28;19963;-82
2024/01/04 12:12:53;;;;;;;;;;;;;;;7.58;100.00;98803.53;4985940;28;20013;-83
2024/01/04 12:15:21;;;;;;;;;;;;;;;7.53;100.00;98810.78;4985644;28;19918;-82
2024/01/04 12:17:46;;;;;;;;;;;;;;;7.43;100.00;98815.59;4985115;28;19917;-86
2024/01/04 12:20:12;;;;;;;;;;;;;;;7.46;100.00;98807.56;4986004;28;19928;-83
2024/01/04 12:22:41;;;;;;;;;;;;;;;8.61;100.00;98795.06;4985550;28;19918;-83
2024/01/04 12:25:07;;;;;;;;;;;;;;;7.74;100.00;98801.03;4985672;28;19918;-84
2024/01/04 12:27:32;;;;;;;;;;;;;;;7.57;100.00;98799.16;4986104;28;20392;-82
2024/01/04 12:29:58;;;;;;;;;;;;;;;7.45;100.00;98803.22;4985413;28;19918;-84
2024/01/04 12:32:23;;;;;;;;;;;;;;;7.40;100.00;98799.06;5007275;28;19922;-84
2024/01/04 12:34:49;;;;;;;;;;;;;;;7.24;100.00;98798.91;4984113;28;19985;-83
2024/01/04 12:37:16;;;;;;;;;;;;;;;7.29;100.00;98799.56;4985621;28;20242;-81
2024/01/04 12:39:42;;;;;;;;;;;;;;;7.28;100.00;98795.22;4985749;28;20708;-84
2024/01/04 12:42:12;;;;;;;;;;;;;;;7.32;100.00;98795.94;4984968;28;19925;-84
2024/01/04 12:44:37;;;;;;;;;;;;;;;7.27;100.00;98781.22;4985947;28;19929;-84
2024/01/04 12:47:03;;;;;;;;;;;;;;;7.20;100.00;98792.09;5006393;28;20320;-84
2024/01/04 12:49:28;;;;;;;;;;;;;;;7.26;100.00;98794.44;4985259;28;19942;-85
2024/01/04 12:51:53;;;;;;;;;;;;;;;7.30;100.00;98789.91;4985398;28;19926;-85
2024/01/04 12:54:19;;;;;;;;;;;;;;;7.25;100.00;98790.94;4985509;28;19918;-84
2024/01/04 12:56:44;;;;;;;;;;;;;;;7.20;100.00;98794.72;4985551;28;19926;-89
2024/01/04 12:59:11;;;;;;;;;;;;;;;7.14;100.00;98792.38;4984774;28;19973;-83
2024/01/04 13:01:37;;;;;;;;;;;;;;;7.16;100.00;98801.88;4983630;28;19925;-86
2024/01/04 13:04:03;;;;;;;;;;;;;;;7.19;100.00;98793.84;4984151;28;19918;-85
2024/01/04 13:06:29;;;;;;;;;;;;;;;7.20;100.00;98800.00;4985032;28;20609;-85
2024/01/04 13:08:54;;;;;;;;;;;;;;;7.23;100.00;98791.97;4983673;28;19922;-84
2024/01/04 13:11:20;;;;;;;;;;;;;;;7.16;100.00;98793.13;4983782;28;19918;-83
2024/01/04 13:13:45;;;;;;;;;;;;;;;7.19;100.00;98796.47;4983865;28;19924;-85
2024/01/04 13:16:11;;;;;;;;;;;;;;;7.16;100.00;98798.41;4983341;28;19924;-85
2024/01/04 13:18:36;;;;;;;;;;;;;;;7.09;100.00;98796.03;4984740;28;19922;-84
2024/01/04 13:21:02;;;;;;;;;;;;;;;7.06;100.00;98797.97;4985415;28;19953;-83
2024/01/04 13:23:29;;;;;;;;;;;;;;;7.01;100.00;98795.53;4983319;28;20392;-83
2024/01/04 13:25:55;;;;;;;;;;;;;;;7.00;100.00;98791.19;4984987;28;20846;-83
2024/01/04 13:28:20;;;;;;;;;;;;;;;7.05;100.00;98793.59;4984750;28;19972;-83
2024/01/04 13:30:45;;;;;;;;;;;;;;;7.00;100.00;98787.69;4983486;28;19918;-85
2024/01/04 13:33:11;;;;;;;;;;;;;;;6.94;100.00;98787.97;4984433;28;19988;-85
2024/01/04 13:35:36;;;;;;;;;;;;;;;7.01;100.00;98786.78;5007175;28;20004;-86
2024/01/04 13:38:01;;;;;;;;;;;;;;;6.99;100.00;98778.06;4984588;28;19962;-85
2024/01/04 13:40:27;;;;;;;;;;;;;;;7.06;100.00;98772.47;4984342;28;19914;-86
2024/01/04 13:42:52;;;;;;;;;;;;;;;7.02;100.00;98777.94;4984604;28;19925;-91
2024/01/04 13:45:18;;;;;;;;;;;;;;;7.03;100.00;98774.41;4982487;28;19921;-85
2024/01/04 13:47:43;;;;;;;;;;;;;;;6.97;100.00;98775.50;4982776;28;19918;-82
2024/01/04 13:50:09;;;;;;;;;;;;;;;7.02;100.00;98778.81;4984004;28;20377;-84
2024/01/04 13:52:34;;;;;;;;;;;;;;;7.04;100.00;98773.47;4983890;28;19918;-83
2024/01/04 13:55:00;;;;;;;;;;;;;;;6.98;100.00;98779.84;4984162;28;19921;-83
2024/01/04 13:57:25;;;;;;;;;;;;;;;6.98;100.00;98786.91;4984291;28;20277;-83
2024/01/04 13:59:50;;;;;;;;;;;;;;;6.96;100.00;98772.97;4983431;28;19925;-83
2024/01/04 14:02:16;;;;;;;;;;;;;;;7.02;100.00;98773.53;4982349;28;20048;-82
2024/01/04 14:04:41;;;;;;;;;;;;;;;7.02;100.00;98770.91;4984019;28;19918;-84
2024/01/04 14:07:08;;;;;;;;;;;;;;;7.02;100.00;98773.53;4984396;28;19992;-87
2024/01/04 14:09:33;;;;;;;;;;;;;;;6.97;100.00;98767.59;4983753;28;19931;-91
2024/01/04 14:11:59;;;;;;;;;;;;;;;6.98;100.00;98766.69;4983781;28;20313;-84
2024/01/04 14:14:24;;;;;;;;;;;;;;;6.98;100.00;98776.38;4984078;28;20352;-85
2024/01/04 14:16:50;;;;;;;;;;;;;;;6.96;100.00;98767.69;4982826;28;19917;-83
2024/01/04 14:19:15;;;;;;;;;;;;;;;7.03;100.00;98769.13;4983578;28;19918;-86
2024/01/04 14:21:40;;;;;;;;;;;;;;;6.91;100.00;98776.66;5006416;28;20155;-85
2024/01/04 14:24:05;;;;;;;;;;;;;;;6.98;100.00;98776.38;4982287;28;20009;-81
2024/01/04 14:26:30;;;;;;;;;;;;;;;6.97;100.00;98775.50;4983449;28;19921;-81
2024/01/04 14:28:56;;;;;;;;;;;;;;;6.96;100.00;98768.53;4982472;28;19918;-83
2024/01/04 14:31:21;;;;;;;;;;;;;;;6.98;100.00;98761.41;4982421;28;19961;-89
2024/01/04 14:33:46;;;;;;;;;;;;;;;6.98;100.00;98771.97;4983201;28;19919;-82
2024/01/04 14:36:12;;;;;;;;;;;;;;;6.99;100.00;98763.16;4983281;28;19921;-80
2024/01/04 14:38:37;;;;;;;;;;;;;;;6.97;100.00;98762.34;4983683;28;20325;-80
2024/01/04 14:41:04;;;;;;;;;;;;;;;7.02;100.00;98756.88;4983495;28;19929;-84
2024/01/04 14:43:30;;;;;;;;;;;;;;;7.00;100.00;98759.56;5005714;28;19925;-82
2024/01/04 14:45:55;;;;;;;;;;;;;;;7.00;100.00;98756.94;5005283;28;19975;-87
2024/01/04 14:48:20;;;;;;;;;;;;;;;7.01;100.00;98755.19;4983520;28;19965;-82
2024/01/04 14:50:45;;;;;;;;;;;;;;;6.98;100.00;98756.16;4983084;28;19922;-81
2024/01/04 14:53:11;;;;;;;;;;;;;;;6.97;100.00;98749.16;4982988;28;19982;-83
2024/01/04 14:55:36;;;;;;;;;;;;;;;7.03;100.00;98743.63;4973891;28;19917;-80
2024/01/04 14:58:01;;;;;;;;;;;;;;;7.03;100.00;98741.00;4983186;28;19921;-81
2024/01/04 15:00:26;;;;;;;;;;;;;;;6.99;100.00;98744.72;4983035;28;19950;-84
2024/01/04 15:02:52;;;;;;;;;;;;;;;7.03;100.00;98748.91;5004235;28;19933;-84
2024/01/04 15:05:17;;;;;;;;;;;;;;;6.98;100.00;98744.78;5006250;28;19968;-85
2024/01/04 15:07:42;;;;;;;;;;;;;;;7.01;100.00;98744.66;4983238;28;20495;-84
2024/01/04 15:10:11;;;;;;;;;;;;;;;7.04;100.00;98753.25;4982273;28;19920;-81
2024/01/04 15:12:39;;;;;;;;;;;;;;;7.04;100.00;98755.03;4981613;28;20445;-82
2024/01/04 15:15:08;;;;;;;;;;;;;;;7.04;100.00;98750.63;4983243;28;19922;-84
2024/01/04 15:17:34;;;;;;;;;;;;;;;7.06;100.00;98743.50;5004640;28;19925;-81
2024/01/04 15:19:59;;;;;;;;;;;;;;;7.03;100.00;98748.06;4982997;28;19918;-83
2024/01/04 15:22:24;;;;;;;;;;;;;;;7.07;100.00;98747.84;4982934;28;19922;-88
2024/01/04 15:24:50;;;;;;;;;;;;;;;7.06;100.00;98753.19;4982694;28;19918;-83
2024/01/04 15:27:15;;;;;;;;;;;;;;;7.07;100.00;98745.22;4982730;28;20272;-82
2024/01/04 15:29:41;;;;;;;;;;;;;;;7.05;100.00;98735.66;4981717;28;19917;-81
2024/01/04 15:32:06;;;;;;;;;;;;;;;7.02;100.00;98736.66;4980540;28;19922;-84
2024/01/04 15:34:32;;;;;;;;;;;;;;;6.96;100.00;98736.94;4982772;28;19966;-85
2024/01/04 15:36:57;;;;;;;;;;;;;;;6.97;100.00;98730.72;5006082;28;19930;-87
2024/01/04 15:39:22;;;;;;;;;;;;;;;6.96;100.00;98741.38;4982387;28;19974;-89
2024/01/04 15:41:48;;;;;;;;;;;;;;;7.02;100.00;98739.31;4982786;28;19918;-83
2024/01/04 15:44:14;;;;;;;;;;;;;;;6.97;100.00;98732.53;4982731;28;19922;-81
2024/01/04 15:46:40;;;;;;;;;;;;;;;6.96;100.00;98739.56;4981492;28;19945;-80
2024/01/04 15:49:06;;;;;;;;;;;;;;;7.01;100.00;98740.22;4982426;28;20378;-83
2024/01/04 15:51:31;;;;;;;;;;;;;;;7.05;100.00;98744.44;5006050;28;19918;-84
2024/01/04 15:53:57;;;;;;;;;;;;;;;7.01;100.00;98742.84;4982405;28;19914;-83
2024/01/04 15:56:23;;;;;;;;;;;;;;;6.91;100.00;98733.66;4982543;28;20001;-84
2024/01/04 15:58:49;;;;;;;;;;;;;;;6.98;100.00;98734.25;4982337;28;20329;-83
2024/01/04 16:01:14;;;;;;;;;;;;;;;7.02;100.00;98734.03;4987905;28;20067;-83
2024/01/04 16:03:39;;;;;;;;;;;;;;;6.99;100.00;98726.28;4982053;28;19929;-84
2024/01/04 16:06:05;;;;;;;;;;;;;;;7.02;100.00;98730.53;4982803;28;19918;-84
2024/01/04 16:08:30;;;;;;;;;;;;;;;6.89;100.00;98723.19;4982472;28;19933;-83
2024/01/04 16:10:56;;;;;;;;;;;;;;;6.89;100.00;98717.06;4982146;28;20021;-88
2024/01/04 16:13:21;;;;;;;;;;;;;;;6.92;100.00;98719.56;4982413;28;19924;-82
2024/01/04 16:15:47;;;;;;;;;;;;;;;6.91;100.00;98718.72;5003443;28;20673;-83
2024/01/04 16:18:12;;;;;;;;;;;;;;;6.87;100.00;98711.84;4982381;28;19922;-83
2024/01/04 16:20:37;;;;;;;;;;;;;;;6.93;100.00;98718.66;5005018;28;19922;-85
2024/01/04 16:23:03;;;;;;;;;;;;;;;6.89;100.00;98717.06;4984993;28;19918;-83
2024/01/04 16:25:29;;;;;;;;;;;;;;;6.84;100.00;98717.25;4986021;28;19922;-83
2024/01/04 16:27:54;;;;;;;;;;;;;;;6.91;100.00;98715.22;4984078;28;19973;-86
2024/01/04 16:30:19;;;;;;;;;;;;;;;6.89;100.00;98717.94;4986224;28;19960;-87
2024/01/04 16:32:44;;;;;;;;;;;;;;;6.92;100.00;98716.91;4984100;28;19922;-81
2024/01/04 16:35:10;;;;;;;;;;;;;;;6.89;100.00;98714.41;4985403;28;19957;-82
2024/01/04 16:37:38;;;;;;;;;;;;;;;6.99;100.00;98709.59;4985686;28;19918;-83
2024/01/04 16:40:04;;;;;;;;;;;;;;;6.90;100.00;98705.63;4984400;28;19925;-85
2024/01/04 16:42:29;;;;;;;;;;;;;;;6.88;100.00;98704.84;4983641;28;19921;-85
2024/01/04 16:44:55;;;;;;;;;;;;;;;6.89;100.00;98714.41;4985305;28;19918;-85
2024/01/04 16:47:28;;;;;;;;;;;;;;;6.90;100.00;98703.81;4984172;28;19953;-83
2024/01/04 16:49:56;;;;;;;;;;;;;;;6.96;100.00;98707.97;5009056;28;19922;-83
2024/01/04 16:52:22;;;;;;;;;;;;;;;6.94;100.00;98703.69;4984529;28;19924;-85
2024/01/04 16:54:52;;;;;;;;;;;;;;;6.96;100.00;98694.81;4984967;28;19922;-84
2024/01/04 16:57:18;;;;;;;;;;;;;;;6.94;100.00;98690.53;4985556;28;19960;-84
2024/01/04 16:59:43;;;;;;;;;;;;;;;6.89;100.00;98677.56;4985751;28;19953;-83
2024/01/04 17:02:08;;;;;;;;;;;;;;;6.92;100.00;98687.97;4984330;28;19921;-84
2024/01/04 17:04:34;;;;;;;;;;;;;;;6.93;100.00;98673.88;4985137;28;20348;-83
2024/01/04 17:06:59;;;;;;;;;;;;;;;6.93;100.00;98673.88;4984866;28;19922;-82
2024/01/04 17:09:25;;;;;;;;;;;;;;;6.91;100.00;98667.84;4985826;28;19925;-83
2024/01/04 17:11:50;;;;;;;;;;;;;;;6.93;100.00;98662.50;4983043;28;19932;-83
2024/01/04 17:14:16;;;;;;;;;;;;;;;6.94;100.00;98659.78;4985059;28;19918;-83
2024/01/04 17:16:44;;;;;;;;;;;;;;;6.96;100.00;98657.94;4983449;28;19917;-83
2024/01/04 17:19:09;;;;;;;;;;;;;;;6.94;100.00;98658.91;4984137;28;19918;-85
2024/01/04 17:21:35;;;;;;;;;;;;;;;6.88;100.00;98658.28;4984884;28;19918;-82
2024/01/04 17:24:20;;;;;;;;;;;;;;;6.95;100.00;98669.38;4983361;28;20281;-90
2024/01/04 17:26:46;;;;;;;;;;;;;;;6.96;100.00;98672.88;4983001;28;19918;-82
2024/01/04 17:29:11;;;;;;;;;;;;;;;6.91;100.00;98678.38;4983132;28;19921;-83
2024/01/04 17:31:36;;;;;;;;;;;;;;;6.88;100.00;98686.41;4983050;28;19917;-84
2024/01/04 17:34:01;;;;;;;;;;;;;;;6.88;100.00;98686.41;4983923;28;20004;-85
2024/01/04 17:36:36;;;;;;;;;;;;;;;6.89;100.00;98688.97;4984498;28;19918;-84
2024/01/04 17:39:11;;;;;;;;;;;;;;;6.82;100.00;98681.41;4983085;28;19969;-83
2024/01/04 17:41:37;;;;;;;;;;;;;;;6.82;100.00;98682.25;5007552;28;19988;-84
2024/01/04 17:44:03;;;;;;;;;;;;;;;6.77;100.00;98680.78;4984758;28;20468;-84
2024/01/04 17:46:28;;;;;;;;;;;;;;;6.83;100.00;98672.56;4983267;28;19918;-83
2024/01/04 17:48:55;;;;;;;;;;;;;;;6.85;100.00;98670.75;4984806;28;19922;-83
2024/01/04 17:51:22;;;;;;;;;;;;;;;6.84;100.00;98679.56;4984254;28;20406;-83
2024/01/04 17:53:50;;;;;;;;;;;;;;;6.86;100.00;98672.44;4984049;28;19950;-85
2024/01/04 17:56:16;;;;;;;;;;;;;;;6.80;100.00;98668.31;4983958;28;20006;-83
2024/01/04 17:58:42;;;;;;;;;;;;;;;6.80;100.00;98673.56;4984229;28;20002;-85
2024/01/04 18:01:09;;;;;;;;;;;;;;;6.74;100.00;98673.84;4983679;28;19949;-83
2024/01/04 18:03:34;;;;;;;;;;;;;;;6.77;100.00;98670.25;4983289;28;19929;-83
2024/01/04 18:05:59;;;;;;;;;;;;;;;6.85;100.00;98668.09;4982070;28;20456;-90
2024/01/04 18:08:25;;;;;;;;;;;;;;;6.86;100.00;98670.66;4984301;28;20040;-81
2024/01/04 18:10:50;;;;;;;;;;;;;;;6.83;100.00;98673.44;4983793;28;19926;-83
2024/01/04 18:13:15;;;;;;;;;;;;;;;6.88;100.00;98665.34;4983710;28;19922;-84
2024/01/04 18:15:41;;;;;;;;;;;;;;;6.81;100.00;98663.88;4982903;28;19918;-83
2024/01/04 18:18:06;;;;;;;;;;;;;;;6.76;100.00;98656.19;4983971;28;19922;-83
2024/01/04 18:20:31;;;;;;;;;;;;;;;6.90;100.00;98663.47;4983546;28;20388;-85
2024/01/04 18:22:56;;;;;;;;;;;;;;;6.83;100.00;98651.50;4983469;28;20308;-83
2024/01/04 18:25:21;;;;;;;;;;;;;;;6.81;100.00;98648.09;4983676;28;20276;-83
2024/01/04 18:27:50;;;;;;;;;;;;;;;6.83;100.00;98655.00;4983728;28;19928;-84
2024/01/04 18:30:15;;;;;;;;;;;;;;;6.85;100.00;98655.78;4984501;28;19929;-83
2024/01/04 18:32:40;;;;;;;;;;;;;;;6.78;100.00;98658.75;5005561;28;19918;-83
2024/01/04 18:35:06;;;;;;;;;;;;;;;6.86;100.00;98668.03;4982983;28;19922;-83
2024/01/04 18:37:31;;;;;;;;;;;;;;;6.87;100.00;98660.97;5006737;28;20008;-82
2024/01/04 18:39:56;;;;;;;;;;;;;;;6.84;100.00;98658.47;4983067;28;20053;-82
2024/01/04 18:42:21;;;;;;;;;;;;;;;6.77;100.00;98657.06;4984045;28;19933;-83
2024/01/04 18:44:47;;;;;;;;;;;;;;;6.86;100.00;98656.63;4984255;28;20369;-83
2024/01/04 18:47:13;;;;;;;;;;;;;;;6.83;100.00;98657.63;4982017;28;19922;-83
2024/01/04 18:49:38;;;;;;;;;;;;;;;6.86;100.00;98656.63;4982835;28;19922;-82
2024/01/04 18:52:04;;;;;;;;;;;;;;;6.77;100.00;98651.81;4983295;28;19941;-85
2024/01/04 18:54:29;;;;;;;;;;;;;;;6.82;100.00;98652.44;4982074;28;19922;-86
2024/01/04 18:56:55;;;;;;;;;;;;;;;6.70;100.00;98652.06;4982871;28;19917;-84
2024/01/04 18:59:20;;;;;;;;;;;;;;;6.77;100.00;98663.19;4983195;28;20377;-81
2024/01/04 19:01:45;;;;;;;;;;;;;;;6.79;100.00;98658.69;4981507;28;19922;-82
2024/01/04 19:04:11;;;;;;;;;;;;;;;6.82;100.00;98649.81;4982681;28;19918;-82
2024/01/04 19:06:36;;;;;;;;;;;;;;;6.76;100.00;98647.44;4982964;28;19934;-88
2024/01/04 19:09:01;;;;;;;;;;;;;;;6.82;100.00;98652.44;4981560;28;20346;-82
2024/01/04 19:11:27;;;;;;;;;;;;;;;6.71;100.00;98643.25;4982624;28;19927;-85
2024/01/04 19:13:53;;;;;;;;;;;;;;;6.67;100.00;98633.78;4982954;28;19984;-83
2024/01/04 19:16:19;;;;;;;;;;;;;;;6.76;100.00;98640.41;4981930;28;19918;-81
2024/01/04 19:18:46;;;;;;;;;;;;;;;6.72;100.00;98634.44;4984141;28;19935;-82
2024/01/04 19:21:11;;;;;;;;;;;;;;;6.66;100.00;98629.44;4982764;28;19969;-83
2024/01/04 19:23:36;;;;;;;;;;;;;;;6.64;100.00;98620.75;4982846;28;19972;-83
2024/01/04 19:26:02;;;;;;;;;;;;;;;6.65;100.00;98614.59;4981511;28;19966;-85
2024/01/04 19:28:27;;;;;;;;;;;;;;;6.64;100.00;98615.50;4981259;28;19919;-83
2024/01/04 19:30:53;;;;;;;;;;;;;;;6.70;100.00;98609.09;4981153;28;19919;-83
2024/01/04 19:33:18;;;;;;;;;;;;;;;6.68;100.00;98605.69;4982857;28;20393;-83
2024/01/04 19:35:43;;;;;;;;;;;;;;;6.68;100.00;98597.78;4982884;28;20412;-83
2024/01/04 19:38:11;;;;;;;;;;;;;;;6.64;100.00;98604.97;4982308;28;19941;-82
2024/01/04 19:40:36;;;;;;;;;;;;;;;6.64;100.00;98610.22;4982760;28;20290;-81
2024/01/04 19:43:01;;;;;;;;;;;;;;;6.76;100.00;98613.22;5004832;28;19925;-82
2024/01/04 19:45:29;;;;;;;;;;;;;;;6.74;100.00;98613.31;4982558;28;19925;-83
2024/01/04 19:47:56;;;;;;;;;;;;;;;6.77;100.00;98609.69;4981335;28;19977;-81
2024/01/04 19:50:24;;;;;;;;;;;;;;;6.74;100.00;98610.66;4982771;28;20362;-88
2024/01/04 19:52:49;;;;;;;;;;;;;;;6.71;100.00;98609.00;4982429;28;19918;-82
2024/01/04 19:55:20;;;;;;;;;;;;;;;6.68;100.00;98611.78;4982397;28;19922;-82
2024/01/04 19:57:46;;;;;;;;;;;;;;;6.70;100.00;98609.09;4983683;28;19918;-82
2024/01/04 20:00:11;;;;;;;;;;;;;;;6.61;100.00;98602.47;4985897;28;20271;-81
2024/01/04 20:02:37;;;;;;;;;;;;;;;6.69;100.00;98600.34;4984360;28;19926;-82
2024/01/04 20:05:02;;;;;;;;;;;;;;;6.60;100.00;98595.50;4986516;28;20637;-82
2024/01/04 20:07:28;;;;;;;;;;;;;;;6.61;100.00;98588.47;4986367;28;19919;-83
2024/01/04 20:09:54;;;;;;;;;;;;;;;6.62;100.00;98592.78;4987000;28;19917;-84
2024/01/04 20:12:19;;;;;;;;;;;;;;;6.65;100.00;98596.16;4986075;28;20086;-81
2024/01/04 20:14:44;;;;;;;;;;;;;;;6.61;100.00;98591.09;4985851;28;20017;-83
2024/01/04 20:17:09;;;;;;;;;;;;;;;6.61;100.00;98591.94;4984978;28;20427;-84
2024/01/04 20:19:35;;;;;;;;;;;;;;;6.65;100.00;98597.91;4985067;28;20333;-81
2024/01/04 20:22:01;;;;;;;;;;;;;;;6.71;100.00;98600.28;4984391;28;19920;-82
2024/01/04 20:24:28;;;;;;;;;;;;;;;6.64;100.00;98599.69;4986057;28;19917;-83
2024/01/04 20:26:53;;;;;;;;;;;;;;;6.57;100.00;98606.16;4985520;28;20293;-83
2024/01/04 20:29:19;;;;;;;;;;;;;;;6.64;100.00;98604.97;4985795;28;19914;-88
2024/01/04 20:31:44;;;;;;;;;;;;;;;6.66;100.00;98599.63;4984236;28;19922;-84
2024/01/04 20:34:11;;;;;;;;;;;;;;;6.72;100.00;98596.72;4985568;28;19921;-84
2024/01/04 20:36:38;;;;;;;;;;;;;;;6.71;100.00;98590.59;4985419;28;20460;-84
2024/01/04 20:39:03;;;;;;;;;;;;;;;6.67;100.00;98588.16;4985539;28;19922;-81
2024/01/04 20:41:29;;;;;;;;;;;;;;;6.71;100.00;98592.38;4985664;28;19918;-84
2024/01/04 20:43:54;;;;;;;;;;;;;;;6.67;100.00;98594.31;4985074;28;19929;-84
2024/01/04 20:46:19;;;;;;;;;;;;;;;6.66;100.00;98584.69;5007067;28;19922;-86
2024/01/04 20:48:44;;;;;;;;;;;;;;;6.64;100.00;98589.19;4984350;28;20013;-83
2024/01/04 20:51:12;;;;;;;;;;;;;;;6.73;100.00;98578.22;4985394;28;20008;-83
2024/01/04 20:53:38;;;;;;;;;;;;;;;6.65;100.00;98577.72;4983846;28;20284;-84
2024/01/04 20:56:04;;;;;;;;;;;;;;;6.68;100.00;98580.19;4985778;28;20005;-91
2024/01/04 20:58:29;;;;;;;;;;;;;;;6.64;100.00;98570.75;4984967;28;20432;-83
2024/01/04 21:00:54;;;;;;;;;;;;;;;6.61;100.00;98576.16;4984011;28;20248;-83
2024/01/04 21:03:20;;;;;;;;;;;;;;;6.58;100.00;98576.28;4981025;28;19977;-85
2024/01/04 21:05:46;;;;;;;;;;;;;;;6.64;100.00;98578.66;4984840;28;20382;-83
2024/01/04 21:08:13;;;;;;;;;;;;;;;6.68;100.00;98574.09;5007984;28;19973;-84
2024/01/04 21:10:39;;;;;;;;;;;;;;;6.68;100.00;98571.44;5007623;28;19921;-83
2024/01/04 21:13:05;;;;;;;;;;;;;;;6.66;100.00;98565.41;4984405;28;19923;-83
2024/01/04 21:15:31;;;;;;;;;;;;;;;6.63;100.00;98555.88;4984677;28;19929;-84
2024/01/04 21:17:56;;;;;;;;;;;;;;;6.57;100.00;98565.84;4983949;28;20013;-81
2024/01/04 21:20:21;;;;;;;;;;;;;;;6.53;100.00;98565.13;4985354;28;19929;-84